sensor_id;sensor_type;location;lat;lon;timestamp;temperature;humidity
16128;DHT22;8168;49.036;7.690;2023-05-15T00:01:48;11.70;99.90
16128;DHT22;8168;49.036;7.690;2023-05-15T00:04:18;11.70;99.90
16128;DHT22;8168;49.036;7.690;2023-05-15T00:06:49;11.70;99.90
16128;DHT22;8168;49.036;7.690;2023-05-15T00:09:20;11.70;99.90
16128;DHT22;8168;49.036;7.690;2023-05-15T00:11:51;11.60;99.90
16128;DHT22;8168;49.036;7.690;2023-05-15T00:14:21;11.30;99.90
16128;DHT22;8168;49.036;7.690;2023-05-15T00:16:52;11.60;99.90
16128;DHT22;8168;49.036;7.690;2023-05-15T00:19:23;11.50;99.90
16128;DHT22;8168;49.036;7.690;2023-05-15T00:21:53;11.50;99.90
16128;DHT22;8168;49.036;7.690;2023-05-15T00:24:24;11.50;99.90
16128;DHT22;8168;49.036;7.690;2023-05-15T00:26:55;11.50;99.90
16128;DHT22;8168;49.036;7.690;2023-05-15T00:29:25;11.40;99.90
16128;DHT22;8168;49.036;7.690;2023-05-15T00:31:56;11.40;99.90
16128;DHT22;8168;49.036;7.690;2023-05-15T00:34:27;11.30;99.90
16128;DHT22;8168;49.036;7.690;2023-05-15T00:36:58;11.30;99.90
16128;DHT22;8168;49.036;7.690;2023-05-15T00:39:29;11.30;99.90
16128;DHT22;8168;49.036;7.690;2023-05-15T00:42:02;11.30;99.90
16128;DHT22;8168;49.036;7.690;2023-05-15T00:44:33;11.30;99.90
16128;DHT22;8168;49.036;7.690;2023-05-15T00:47:06;11.20;99.90
16128;DHT22;8168;49.036;7.690;2023-05-15T00:49:37;11.20;99.90
16128;DHT22;8168;49.036;7.690;2023-05-15T00:52:08;11.20;99.90
16128;DHT22;8168;49.036;7.690;2023-05-15T00:54:38;11.10;99.90
16128;DHT22;8168;49.036;7.690;2023-05-15T00:57:09;11.10;99.90
16128;DHT22;8168;49.036;7.690;2023-05-15T00:59:41;11.10;99.90
16128;DHT22;8168;49.036;7.690;2023-05-15T01:02:14;11.00;99.90
16128;DHT22;8168;49.036;7.690;2023-05-15T01:04:45;11.00;99.90
16128;DHT22;8168;49.036;7.690;2023-05-15T01:07:16;11.00;99.90
16128;DHT22;8168;49.036;7.690;2023-05-15T01:09:48;11.00;99.90
16128;DHT22;8168;49.036;7.690;2023-05-15T01:12:22;10.90;99.90
16128;DHT22;8168;49.036;7.690;2023-05-15T01:14:53;10.90;99.90
16128;DHT22;8168;49.036;7.690;2023-05-15T01:17:24;10.90;99.90
16128;DHT22;8168;49.036;7.690;2023-05-15T01:19:55;10.80;99.90
16128;DHT22;8168;49.036;7.690;2023-05-15T01:22:43;10.80;99.90
16128;DHT22;8168;49.036;7.690;2023-05-15T01:25:34;10.80;99.90
16128;DHT22;8168;49.036;7.690;2023-05-15T01:28:11;10.70;99.90
16128;DHT22;8168;49.036;7.690;2023-05-15T01:30:47;10.70;99.90
16128;DHT22;8168;49.036;7.690;2023-05-15T01:33:25;10.70;99.90
16128;DHT22;8168;49.036;7.690;2023-05-15T01:36:23;10.60;99.90
16128;DHT22;8168;49.036;7.690;2023-05-15T01:38:56;10.60;99.90
16128;DHT22;8168;49.036;7.690;2023-05-15T01:44:14;10.60;99.90
16128;DHT22;8168;49.036;7.690;2023-05-15T01:46:51;10.50;99.90
16128;DHT22;8168;49.036;7.690;2023-05-15T01:49:26;10.50;99.90
16128;DHT22;8168;49.036;7.690;2023-05-15T01:52:18;10.50;99.90
16128;DHT22;8168;49.036;7.690;2023-05-15T01:54:50;10.50;99.90
16128;DHT22;8168;49.036;7.690;2023-05-15T01:57:22;10.50;99.90
16128;DHT22;8168;49.036;7.690;2023-05-15T01:59:54;10.50;99.90
16128;DHT22;8168;49.036;7.690;2023-05-15T02:02:26;10.50;99.90
16128;DHT22;8168;49.036;7.690;2023-05-15T02:04:57;10.50;99.90
16128;DHT22;8168;49.036;7.690;2023-05-15T02:07:30;10.50;99.90
16128;DHT22;8168;49.036;7.690;2023-05-15T02:10:02;10.50;99.90
16128;DHT22;8168;49.036;7.690;2023-05-15T02:12:33;10.50;99.90
16128;DHT22;8168;49.036;7.690;2023-05-15T02:15:06;10.40;99.90
16128;DHT22;8168;49.036;7.690;2023-05-15T02:17:38;10.40;99.90
16128;DHT22;8168;49.036;7.690;2023-05-15T02:20:08;10.50;99.90
16128;DHT22;8168;49.036;7.690;2023-05-15T02:22:39;10.50;99.90
16128;DHT22;8168;49.036;7.690;2023-05-15T02:25:10;10.40;99.90
16128;DHT22;8168;49.036;7.690;2023-05-15T02:27:47;10.50;99.90
16128;DHT22;8168;49.036;7.690;2023-05-15T02:30:37;10.50;99.90
16128;DHT22;8168;49.036;7.690;2023-05-15T02:36:07;10.50;99.90
16128;DHT22;8168;49.036;7.690;2023-05-15T02:38:53;10.40;99.90
16128;DHT22;8168;49.036;7.690;2023-05-15T02:41:25;10.40;99.90
16128;DHT22;8168;49.036;7.690;2023-05-15T02:43:56;10.40;99.90
16128;DHT22;8168;49.036;7.690;2023-05-15T02:46:27;10.40;99.90
16128;DHT22;8168;49.036;7.690;2023-05-15T02:48:57;10.40;99.90
16128;DHT22;8168;49.036;7.690;2023-05-15T02:51:28;10.40;99.90
16128;DHT22;8168;49.036;7.690;2023-05-15T02:53:59;10.40;99.90
16128;DHT22;8168;49.036;7.690;2023-05-15T02:56:31;10.40;99.90
16128;DHT22;8168;49.036;7.690;2023-05-15T02:59:01;10.40;99.90
16128;DHT22;8168;49.036;7.690;2023-05-15T03:01:32;10.30;99.90
16128;DHT22;8168;49.036;7.690;2023-05-15T03:04:03;10.30;99.90
16128;DHT22;8168;49.036;7.690;2023-05-15T03:06:34;10.30;99.90
16128;DHT22;8168;49.036;7.690;2023-05-15T03:09:05;10.30;99.90
16128;DHT22;8168;49.036;7.690;2023-05-15T03:11:35;10.20;99.90
16128;DHT22;8168;49.036;7.690;2023-05-15T03:14:06;10.20;99.90
16128;DHT22;8168;49.036;7.690;2023-05-15T03:16:36;10.20;99.90
16128;DHT22;8168;49.036;7.690;2023-05-15T03:19:08;10.20;99.90
16128;DHT22;8168;49.036;7.690;2023-05-15T03:21:38;10.20;99.90
16128;DHT22;8168;49.036;7.690;2023-05-15T03:24:09;10.20;99.90
16128;DHT22;8168;49.036;7.690;2023-05-15T03:26:40;10.20;99.90
16128;DHT22;8168;49.036;7.690;2023-05-15T03:29:12;10.20;99.90
16128;DHT22;8168;49.036;7.690;2023-05-15T03:31:42;10.20;99.90
16128;DHT22;8168;49.036;7.690;2023-05-15T03:34:13;10.20;99.90
16128;DHT22;8168;49.036;7.690;2023-05-15T03:36:43;11.60;99.90
16128;DHT22;8168;49.036;7.690;2023-05-15T03:39:14;10.10;99.90
16128;DHT22;8168;49.036;7.690;2023-05-15T03:41:45;10.10;99.90
16128;DHT22;8168;49.036;7.690;2023-05-15T03:44:15;10.10;99.90
16128;DHT22;8168;49.036;7.690;2023-05-15T03:46:46;10.10;99.90
16128;DHT22;8168;49.036;7.690;2023-05-15T03:49:17;10.10;99.90
16128;DHT22;8168;49.036;7.690;2023-05-15T03:51:47;10.10;99.90
16128;DHT22;8168;49.036;7.690;2023-05-15T03:54:18;10.10;99.90
16128;DHT22;8168;49.036;7.690;2023-05-15T03:56:49;10.10;99.90
16128;DHT22;8168;49.036;7.690;2023-05-15T03:59:19;10.10;99.90
16128;DHT22;8168;49.036;7.690;2023-05-15T04:01:50;10.10;99.90
16128;DHT22;8168;49.036;7.690;2023-05-15T04:04:20;10.00;99.90
16128;DHT22;8168;49.036;7.690;2023-05-15T04:06:51;10.00;99.90
16128;DHT22;8168;49.036;7.690;2023-05-15T04:09:21;10.00;99.90
16128;DHT22;8168;49.036;7.690;2023-05-15T04:11:52;10.00;99.90
16128;DHT22;8168;49.036;7.690;2023-05-15T04:14:23;10.00;99.90
16128;DHT22;8168;49.036;7.690;2023-05-15T04:16:53;9.90;99.90
16128;DHT22;8168;49.036;7.690;2023-05-15T04:19:24;9.90;99.90
16128;DHT22;8168;49.036;7.690;2023-05-15T04:21:54;13.20;99.90
16128;DHT22;8168;49.036;7.690;2023-05-15T04:24:25;9.90;99.90
16128;DHT22;8168;49.036;7.690;2023-05-15T04:26:56;9.90;99.90
16128;DHT22;8168;49.036;7.690;2023-05-15T04:29:26;9.90;99.90
16128;DHT22;8168;49.036;7.690;2023-05-15T04:31:57;9.90;99.90
16128;DHT22;8168;49.036;7.690;2023-05-15T04:34:27;9.90;99.90
16128;DHT22;8168;49.036;7.690;2023-05-15T04:36:58;10.00;99.90
16128;DHT22;8168;49.036;7.690;2023-05-15T04:39:29;10.00;99.90
16128;DHT22;8168;49.036;7.690;2023-05-15T04:42:00;10.10;99.90
16128;DHT22;8168;49.036;7.690;2023-05-15T04:44:31;10.10;99.90
16128;DHT22;8168;49.036;7.690;2023-05-15T04:47:03;10.10;99.90
16128;DHT22;8168;49.036;7.690;2023-05-15T04:49:33;10.20;99.90
16128;DHT22;8168;49.036;7.690;2023-05-15T04:52:04;10.30;99.90
16128;DHT22;8168;49.036;7.690;2023-05-15T04:54:35;10.20;99.90
16128;DHT22;8168;49.036;7.690;2023-05-15T04:57:05;10.30;99.90
16128;DHT22;8168;49.036;7.690;2023-05-15T04:59:36;10.40;99.90
16128;DHT22;8168;49.036;7.690;2023-05-15T05:02:08;10.30;99.90
16128;DHT22;8168;49.036;7.690;2023-05-15T05:04:42;10.40;99.90
16128;DHT22;8168;49.036;7.690;2023-05-15T05:07:15;10.40;99.90
16128;DHT22;8168;49.036;7.690;2023-05-15T05:09:45;10.40;99.90
16128;DHT22;8168;49.036;7.690;2023-05-15T05:12:16;10.50;99.90
16128;DHT22;8168;49.036;7.690;2023-05-15T05:14:46;10.50;99.90
16128;DHT22;8168;49.036;7.690;2023-05-15T05:17:17;10.50;99.90
16128;DHT22;8168;49.036;7.690;2023-05-15T05:19:48;10.50;99.90
16128;DHT22;8168;49.036;7.690;2023-05-15T05:22:18;10.50;99.90
16128;DHT22;8168;49.036;7.690;2023-05-15T05:24:49;10.50;99.90
16128;DHT22;8168;49.036;7.690;2023-05-15T05:27:19;10.60;99.90
16128;DHT22;8168;49.036;7.690;2023-05-15T05:29:51;10.70;99.90
16128;DHT22;8168;49.036;7.690;2023-05-15T05:32:23;10.70;99.90
16128;DHT22;8168;49.036;7.690;2023-05-15T05:34:54;10.70;99.90
16128;DHT22;8168;49.036;7.690;2023-05-15T05:37:24;10.80;99.90
16128;DHT22;8168;49.036;7.690;2023-05-15T05:39:55;10.80;99.90
16128;DHT22;8168;49.036;7.690;2023-05-15T05:42:26;10.90;99.90
16128;DHT22;8168;49.036;7.690;2023-05-15T05:44:57;10.90;99.90
16128;DHT22;8168;49.036;7.690;2023-05-15T05:47:27;11.00;99.90
16128;DHT22;8168;49.036;7.690;2023-05-15T05:49:58;11.00;99.90
16128;DHT22;8168;49.036;7.690;2023-05-15T05:52:28;11.10;99.90
16128;DHT22;8168;49.036;7.690;2023-05-15T05:54:59;11.10;99.90
16128;DHT22;8168;49.036;7.690;2023-05-15T05:57:30;11.20;99.90
16128;DHT22;8168;49.036;7.690;2023-05-15T06:00:00;11.20;99.90
16128;DHT22;8168;49.036;7.690;2023-05-15T06:02:31;11.30;99.90
16128;DHT22;8168;49.036;7.690;2023-05-15T06:05:02;11.30;99.90
16128;DHT22;8168;49.036;7.690;2023-05-15T06:07:33;11.30;99.90
16128;DHT22;8168;49.036;7.690;2023-05-15T06:10:04;11.30;99.90
16128;DHT22;8168;49.036;7.690;2023-05-15T06:12:36;11.40;99.90
16128;DHT22;8168;49.036;7.690;2023-05-15T06:15:07;11.50;99.90
16128;DHT22;8168;49.036;7.690;2023-05-15T06:17:38;11.60;99.90
16128;DHT22;8168;49.036;7.690;2023-05-15T06:20:09;11.70;99.90
16128;DHT22;8168;49.036;7.690;2023-05-15T06:22:41;11.80;99.90
16128;DHT22;8168;49.036;7.690;2023-05-15T06:25:11;11.80;99.90
16128;DHT22;8168;49.036;7.690;2023-05-15T06:27:43;11.90;99.90
16128;DHT22;8168;49.036;7.690;2023-05-15T06:30:14;12.00;99.90
16128;DHT22;8168;49.036;7.690;2023-05-15T06:32:45;12.10;99.90
16128;DHT22;8168;49.036;7.690;2023-05-15T06:35:15;12.20;99.90
16128;DHT22;8168;49.036;7.690;2023-05-15T06:37:46;12.20;99.90
16128;DHT22;8168;49.036;7.690;2023-05-15T06:40:19;12.30;99.90
16128;DHT22;8168;49.036;7.690;2023-05-15T06:42:50;12.40;99.90
16128;DHT22;8168;49.036;7.690;2023-05-15T06:45:21;12.40;99.90
16128;DHT22;8168;49.036;7.690;2023-05-15T06:47:51;12.60;99.90
16128;DHT22;8168;49.036;7.690;2023-05-15T06:50:22;12.70;99.90
16128;DHT22;8168;49.036;7.690;2023-05-15T06:52:52;12.80;99.90
16128;DHT22;8168;49.036;7.690;2023-05-15T06:55:24;12.90;99.90
16128;DHT22;8168;49.036;7.690;2023-05-15T06:57:54;13.00;99.90
16128;DHT22;8168;49.036;7.690;2023-05-15T07:00:25;13.20;99.90
16128;DHT22;8168;49.036;7.690;2023-05-15T07:02:56;13.30;99.90
16128;DHT22;8168;49.036;7.690;2023-05-15T07:05:26;13.40;99.90
16128;DHT22;8168;49.036;7.690;2023-05-15T07:07:57;13.60;99.90
16128;DHT22;8168;49.036;7.690;2023-05-15T07:10:27;13.70;99.90
16128;DHT22;8168;49.036;7.690;2023-05-15T07:12:58;13.80;99.90
16128;DHT22;8168;49.036;7.690;2023-05-15T07:15:29;13.90;99.90
16128;DHT22;8168;49.036;7.690;2023-05-15T07:17:59;14.00;99.90
16128;DHT22;8168;49.036;7.690;2023-05-15T07:20:30;14.10;99.90
16128;DHT22;8168;49.036;7.690;2023-05-15T07:23:01;14.20;99.90
16128;DHT22;8168;49.036;7.690;2023-05-15T07:25:31;14.30;99.90
16128;DHT22;8168;49.036;7.690;2023-05-15T07:28:02;14.40;99.90
16128;DHT22;8168;49.036;7.690;2023-05-15T07:30:32;14.50;99.90
16128;DHT22;8168;49.036;7.690;2023-05-15T07:33:03;14.60;99.90
16128;DHT22;8168;49.036;7.690;2023-05-15T07:35:34;14.70;99.90
16128;DHT22;8168;49.036;7.690;2023-05-15T07:38:04;14.80;99.90
16128;DHT22;8168;49.036;7.690;2023-05-15T07:40:35;14.90;99.90
16128;DHT22;8168;49.036;7.690;2023-05-15T07:43:06;15.00;99.90
16128;DHT22;8168;49.036;7.690;2023-05-15T07:45:36;15.10;99.90
16128;DHT22;8168;49.036;7.690;2023-05-15T07:48:17;15.20;99.90
16128;DHT22;8168;49.036;7.690;2023-05-15T07:50:48;15.30;99.90
16128;DHT22;8168;49.036;7.690;2023-05-15T07:53:21;15.50;99.90
16128;DHT22;8168;49.036;7.690;2023-05-15T07:55:52;15.60;99.90
16128;DHT22;8168;49.036;7.690;2023-05-15T07:58:23;15.70;99.90
16128;DHT22;8168;49.036;7.690;2023-05-15T08:00:53;15.90;99.90
16128;DHT22;8168;49.036;7.690;2023-05-15T08:03:24;16.00;99.90
16128;DHT22;8168;49.036;7.690;2023-05-15T08:05:54;16.10;99.90
16128;DHT22;8168;49.036;7.690;2023-05-15T08:08:25;16.10;99.90
16128;DHT22;8168;49.036;7.690;2023-05-15T08:10:56;16.20;99.90
16128;DHT22;8168;49.036;7.690;2023-05-15T08:13:26;16.20;99.90
16128;DHT22;8168;49.036;7.690;2023-05-15T08:15:58;16.30;99.90
16128;DHT22;8168;49.036;7.690;2023-05-15T08:18:28;16.50;99.90
16128;DHT22;8168;49.036;7.690;2023-05-15T08:20:59;16.60;99.90
16128;DHT22;8168;49.036;7.690;2023-05-15T08:23:29;16.70;99.90
16128;DHT22;8168;49.036;7.690;2023-05-15T08:26:00;16.90;99.90
16128;DHT22;8168;49.036;7.690;2023-05-15T08:28:31;17.00;99.90
16128;DHT22;8168;49.036;7.690;2023-05-15T08:31:02;17.00;99.90
16128;DHT22;8168;49.036;7.690;2023-05-15T08:33:33;17.00;99.90
16128;DHT22;8168;49.036;7.690;2023-05-15T08:36:03;17.00;99.90
16128;DHT22;8168;49.036;7.690;2023-05-15T08:38:34;17.00;99.90
16128;DHT22;8168;49.036;7.690;2023-05-15T08:41:09;17.00;99.90
16128;DHT22;8168;49.036;7.690;2023-05-15T08:43:41;17.10;99.90
16128;DHT22;8168;49.036;7.690;2023-05-15T08:46:13;17.10;99.90
16128;DHT22;8168;49.036;7.690;2023-05-15T08:48:44;17.30;99.90
16128;DHT22;8168;49.036;7.690;2023-05-15T08:51:15;17.40;99.90
16128;DHT22;8168;49.036;7.690;2023-05-15T08:53:48;17.50;99.90
16128;DHT22;8168;49.036;7.690;2023-05-15T08:56:20;19.60;99.90
16128;DHT22;8168;49.036;7.690;2023-05-15T08:58:51;17.70;99.90
16128;DHT22;8168;49.036;7.690;2023-05-15T09:01:22;17.60;99.90
16128;DHT22;8168;49.036;7.690;2023-05-15T09:03:53;17.70;99.90
16128;DHT22;8168;49.036;7.690;2023-05-15T09:06:24;17.80;99.90
16128;DHT22;8168;49.036;7.690;2023-05-15T09:08:55;18.00;99.90
16128;DHT22;8168;49.036;7.690;2023-05-15T09:11:28;18.00;99.90
16128;DHT22;8168;49.036;7.690;2023-05-15T09:13:59;18.10;99.90
16128;DHT22;8168;49.036;7.690;2023-05-15T09:16:30;18.10;99.90
16128;DHT22;8168;49.036;7.690;2023-05-15T09:19:00;18.00;99.90
16128;DHT22;8168;49.036;7.690;2023-05-15T09:21:32;18.10;99.90
16128;DHT22;8168;49.036;7.690;2023-05-15T09:24:23;18.10;99.90
16128;DHT22;8168;49.036;7.690;2023-05-15T09:27:05;18.20;99.90
16128;DHT22;8168;49.036;7.690;2023-05-15T09:29:37;18.00;99.90
16128;DHT22;8168;49.036;7.690;2023-05-15T09:32:09;17.90;99.90
16128;DHT22;8168;49.036;7.690;2023-05-15T09:34:42;17.90;99.90
16128;DHT22;8168;49.036;7.690;2023-05-15T09:37:32;17.90;99.90
16128;DHT22;8168;49.036;7.690;2023-05-15T09:40:07;17.80;99.90
16128;DHT22;8168;49.036;7.690;2023-05-15T09:42:41;17.80;99.90
16128;DHT22;8168;49.036;7.690;2023-05-15T09:45:16;17.80;99.90
16128;DHT22;8168;49.036;7.690;2023-05-15T09:47:47;17.80;99.90
16128;DHT22;8168;49.036;7.690;2023-05-15T09:50:20;17.80;99.90
16128;DHT22;8168;49.036;7.690;2023-05-15T09:52:52;17.80;99.90
16128;DHT22;8168;49.036;7.690;2023-05-15T09:55:23;17.90;99.90
16128;DHT22;8168;49.036;7.690;2023-05-15T09:58:13;17.90;99.90
16128;DHT22;8168;49.036;7.690;2023-05-15T10:00:45;17.90;99.90
16128;DHT22;8168;49.036;7.690;2023-05-15T10:03:17;17.90;99.90
16128;DHT22;8168;49.036;7.690;2023-05-15T10:06:00;18.10;99.90
16128;DHT22;8168;49.036;7.690;2023-05-15T10:08:33;18.30;99.90
16128;DHT22;8168;49.036;7.690;2023-05-15T10:11:06;18.40;99.90
16128;DHT22;8168;49.036;7.690;2023-05-15T10:13:37;18.40;99.90
16128;DHT22;8168;49.036;7.690;2023-05-15T10:16:08;18.30;99.90
16128;DHT22;8168;49.036;7.690;2023-05-15T10:18:40;18.20;99.90
16128;DHT22;8168;49.036;7.690;2023-05-15T10:21:11;18.20;99.90
16128;DHT22;8168;49.036;7.690;2023-05-15T10:23:42;18.20;99.90
16128;DHT22;8168;49.036;7.690;2023-05-15T10:26:22;18.10;99.90
16128;DHT22;8168;49.036;7.690;2023-05-15T10:28:54;18.10;99.90
16128;DHT22;8168;49.036;7.690;2023-05-15T10:31:25;18.10;99.90
16128;DHT22;8168;49.036;7.690;2023-05-15T10:33:59;18.10;99.90
16128;DHT22;8168;49.036;7.690;2023-05-15T10:36:34;18.00;99.90
16128;DHT22;8168;49.036;7.690;2023-05-15T10:39:06;18.00;99.90
16128;DHT22;8168;49.036;7.690;2023-05-15T10:41:38;18.10;99.90
16128;DHT22;8168;49.036;7.690;2023-05-15T10:44:10;18.40;99.90
16128;DHT22;8168;49.036;7.690;2023-05-15T10:46:41;18.70;99.90
16128;DHT22;8168;49.036;7.690;2023-05-15T10:49:11;18.80;99.90
16128;DHT22;8168;49.036;7.690;2023-05-15T10:51:42;18.80;99.90
16128;DHT22;8168;49.036;7.690;2023-05-15T10:54:13;18.70;99.90
16128;DHT22;8168;49.036;7.690;2023-05-15T10:56:44;18.70;99.90
16128;DHT22;8168;49.036;7.690;2023-05-15T10:59:15;18.60;99.90
16128;DHT22;8168;49.036;7.690;2023-05-15T11:01:45;18.60;99.90
16128;DHT22;8168;49.036;7.690;2023-05-15T11:04:17;18.50;99.90
16128;DHT22;8168;49.036;7.690;2023-05-15T11:06:49;18.50;99.90
16128;DHT22;8168;49.036;7.690;2023-05-15T11:09:40;18.40;99.90
16128;DHT22;8168;49.036;7.690;2023-05-15T11:12:11;18.40;99.90
16128;DHT22;8168;49.036;7.690;2023-05-15T11:17:33;18.20;99.90
16128;DHT22;8168;49.036;7.690;2023-05-15T11:20:04;18.10;99.90
16128;DHT22;8168;49.036;7.690;2023-05-15T11:22:35;18.10;99.90
16128;DHT22;8168;49.036;7.690;2023-05-15T11:25:09;18.10;99.90
16128;DHT22;8168;49.036;7.690;2023-05-15T11:27:43;18.00;99.90
16128;DHT22;8168;49.036;7.690;2023-05-15T11:30:16;18.00;99.90
16128;DHT22;8168;49.036;7.690;2023-05-15T11:33:00;18.00;99.90
16128;DHT22;8168;49.036;7.690;2023-05-15T11:35:33;18.00;99.90
16128;DHT22;8168;49.036;7.690;2023-05-15T11:40:58;18.10;99.90
16128;DHT22;8168;49.036;7.690;2023-05-15T11:43:34;18.20;99.90
16128;DHT22;8168;49.036;7.690;2023-05-15T11:46:09;18.40;99.90
16128;DHT22;8168;49.036;7.690;2023-05-15T11:48:43;18.50;99.90
16128;DHT22;8168;49.036;7.690;2023-05-15T11:51:24;18.70;99.90
16128;DHT22;8168;49.036;7.690;2023-05-15T11:53:57;18.90;99.90
16128;DHT22;8168;49.036;7.690;2023-05-15T11:56:27;19.00;99.90
16128;DHT22;8168;49.036;7.690;2023-05-15T11:58:59;19.10;99.90
16128;DHT22;8168;49.036;7.690;2023-05-15T12:01:43;19.10;99.90
16128;DHT22;8168;49.036;7.690;2023-05-15T12:04:17;19.10;98.70
16128;DHT22;8168;49.036;7.690;2023-05-15T12:06:48;19.20;97.90
16128;DHT22;8168;49.036;7.690;2023-05-15T12:09:19;19.10;97.20
16128;DHT22;8168;49.036;7.690;2023-05-15T12:11:52;19.20;96.40
16128;DHT22;8168;49.036;7.690;2023-05-15T12:14:30;19.20;97.80
16128;DHT22;8168;49.036;7.690;2023-05-15T12:17:01;19.40;98.40
16128;DHT22;8168;49.036;7.690;2023-05-15T12:19:33;18.70;97.00
16128;DHT22;8168;49.036;7.690;2023-05-15T12:22:05;19.70;97.90
16128;DHT22;8168;49.036;7.690;2023-05-15T12:24:37;19.70;97.70
16128;DHT22;8168;49.036;7.690;2023-05-15T12:27:09;20.50;96.80
16128;DHT22;8168;49.036;7.690;2023-05-15T12:29:40;19.60;96.50
16128;DHT22;8168;49.036;7.690;2023-05-15T12:32:11;19.60;96.20
16128;DHT22;8168;49.036;7.690;2023-05-15T12:34:42;19.60;98.20
16128;DHT22;8168;49.036;7.690;2023-05-15T12:37:13;19.80;97.00
16128;DHT22;8168;49.036;7.690;2023-05-15T12:39:54;19.90;95.10
16128;DHT22;8168;49.036;7.690;2023-05-15T12:42:25;19.90;95.40
16128;DHT22;8168;49.036;7.690;2023-05-15T12:44:56;20.00;94.30
16128;DHT22;8168;49.036;7.690;2023-05-15T12:47:27;20.00;94.20
16128;DHT22;8168;49.036;7.690;2023-05-15T12:49:58;20.00;93.90
16128;DHT22;8168;49.036;7.690;2023-05-15T12:52:30;19.90;93.70
16128;DHT22;8168;49.036;7.690;2023-05-15T12:55:00;19.90;94.20
16128;DHT22;8168;49.036;7.690;2023-05-15T12:57:31;19.90;96.00
16128;DHT22;8168;49.036;7.690;2023-05-15T13:00:02;19.90;96.00
16128;DHT22;8168;49.036;7.690;2023-05-15T13:02:34;20.00;95.50
16128;DHT22;8168;49.036;7.690;2023-05-15T13:05:05;20.00;95.80
16128;DHT22;8168;49.036;7.690;2023-05-15T13:07:39;20.00;95.60
16128;DHT22;8168;49.036;7.690;2023-05-15T13:10:11;19.90;95.90
16128;DHT22;8168;49.036;7.690;2023-05-15T13:12:44;19.90;96.00
16128;DHT22;8168;49.036;7.690;2023-05-15T13:15:33;19.90;96.20
16128;DHT22;8168;49.036;7.690;2023-05-15T13:18:15;19.80;96.80
16128;DHT22;8168;49.036;7.690;2023-05-15T13:20:49;19.80;96.00
16128;DHT22;8168;49.036;7.690;2023-05-15T13:23:21;19.80;96.40
16128;DHT22;8168;49.036;7.690;2023-05-15T13:25:54;19.80;96.90
16128;DHT22;8168;49.036;7.690;2023-05-15T13:28:25;19.80;96.60
16128;DHT22;8168;49.036;7.690;2023-05-15T13:30:55;19.80;97.10
16128;DHT22;8168;49.036;7.690;2023-05-15T13:33:26;19.80;97.40
16128;DHT22;8168;49.036;7.690;2023-05-15T13:35:58;19.90;98.50
16128;DHT22;8168;49.036;7.690;2023-05-15T13:38:28;19.90;97.80
16128;DHT22;8168;49.036;7.690;2023-05-15T13:40:59;19.90;98.20
16128;DHT22;8168;49.036;7.690;2023-05-15T13:43:30;19.60;99.30
16128;DHT22;8168;49.036;7.690;2023-05-15T13:46:00;19.40;99.90
16128;DHT22;8168;49.036;7.690;2023-05-15T13:48:31;19.20;99.90
16128;DHT22;8168;49.036;7.690;2023-05-15T13:51:02;19.10;99.90
16128;DHT22;8168;49.036;7.690;2023-05-15T13:53:32;18.90;99.90
16128;DHT22;8168;49.036;7.690;2023-05-15T13:56:03;18.80;99.90
16128;DHT22;8168;49.036;7.690;2023-05-15T13:58:33;18.80;99.90
16128;DHT22;8168;49.036;7.690;2023-05-15T14:01:04;18.80;99.90
16128;DHT22;8168;49.036;7.690;2023-05-15T14:03:36;18.70;99.90
16128;DHT22;8168;49.036;7.690;2023-05-15T14:06:07;18.90;99.90
16128;DHT22;8168;49.036;7.690;2023-05-15T14:08:38;19.00;99.90
16128;DHT22;8168;49.036;7.690;2023-05-15T14:11:09;19.10;99.90
16128;DHT22;8168;49.036;7.690;2023-05-15T14:13:39;19.10;99.90
16128;DHT22;8168;49.036;7.690;2023-05-15T14:16:11;19.20;99.90
16128;DHT22;8168;49.036;7.690;2023-05-15T14:18:42;19.20;99.90
16128;DHT22;8168;49.036;7.690;2023-05-15T14:21:12;19.10;99.90
16128;DHT22;8168;49.036;7.690;2023-05-15T14:23:43;18.90;99.90
16128;DHT22;8168;49.036;7.690;2023-05-15T14:26:13;18.70;99.90
16128;DHT22;8168;49.036;7.690;2023-05-15T14:28:44;18.60;99.90
16128;DHT22;8168;49.036;7.690;2023-05-15T14:31:15;18.60;99.90
16128;DHT22;8168;49.036;7.690;2023-05-15T14:33:45;18.60;99.90
16128;DHT22;8168;49.036;7.690;2023-05-15T14:36:16;18.50;99.90
16128;DHT22;8168;49.036;7.690;2023-05-15T14:38:47;18.40;99.90
16128;DHT22;8168;49.036;7.690;2023-05-15T14:41:18;18.40;99.90
16128;DHT22;8168;49.036;7.690;2023-05-15T14:43:49;18.40;99.90
16128;DHT22;8168;49.036;7.690;2023-05-15T14:46:19;18.40;99.90
16128;DHT22;8168;49.036;7.690;2023-05-15T14:48:50;18.40;99.90
16128;DHT22;8168;49.036;7.690;2023-05-15T14:51:20;18.40;99.90
16128;DHT22;8168;49.036;7.690;2023-05-15T14:53:51;18.40;99.90
16128;DHT22;8168;49.036;7.690;2023-05-15T14:56:22;18.40;99.90
16128;DHT22;8168;49.036;7.690;2023-05-15T14:58:52;18.40;99.90
16128;DHT22;8168;49.036;7.690;2023-05-15T15:01:23;18.30;99.90
16128;DHT22;8168;49.036;7.690;2023-05-15T15:03:54;18.20;99.90
16128;DHT22;8168;49.036;7.690;2023-05-15T15:06:24;18.20;99.90
16128;DHT22;8168;49.036;7.690;2023-05-15T15:08:55;18.20;99.90
16128;DHT22;8168;49.036;7.690;2023-05-15T15:11:26;18.30;99.90
16128;DHT22;8168;49.036;7.690;2023-05-15T15:13:56;18.40;99.90
16128;DHT22;8168;49.036;7.690;2023-05-15T15:16:27;18.40;99.90
16128;DHT22;8168;49.036;7.690;2023-05-15T15:18:57;18.50;99.90
16128;DHT22;8168;49.036;7.690;2023-05-15T15:21:28;18.50;99.90
16128;DHT22;8168;49.036;7.690;2023-05-15T15:23:58;18.40;99.90
16128;DHT22;8168;49.036;7.690;2023-05-15T15:26:29;18.40;99.90
16128;DHT22;8168;49.036;7.690;2023-05-15T15:29:00;18.40;99.90
16128;DHT22;8168;49.036;7.690;2023-05-15T15:31:30;18.30;99.90
16128;DHT22;8168;49.036;7.690;2023-05-15T15:34:01;18.10;99.90
16128;DHT22;8168;49.036;7.690;2023-05-15T15:36:32;18.00;99.90
16128;DHT22;8168;49.036;7.690;2023-05-15T15:39:03;18.00;99.90
16128;DHT22;8168;49.036;7.690;2023-05-15T15:41:36;18.00;99.90
16128;DHT22;8168;49.036;7.690;2023-05-15T15:44:14;17.90;99.90
16128;DHT22;8168;49.036;7.690;2023-05-15T15:46:44;17.90;99.90
16128;DHT22;8168;49.036;7.690;2023-05-15T15:49:15;17.90;99.90
16128;DHT22;8168;49.036;7.690;2023-05-15T15:51:46;17.90;99.90
16128;DHT22;8168;49.036;7.690;2023-05-15T15:54:16;17.90;99.90
16128;DHT22;8168;49.036;7.690;2023-05-15T15:56:47;18.00;99.90
16128;DHT22;8168;49.036;7.690;2023-05-15T15:59:17;17.90;99.90
16128;DHT22;8168;49.036;7.690;2023-05-15T16:01:48;17.80;99.90
16128;DHT22;8168;49.036;7.690;2023-05-15T16:04:19;17.90;99.90
16128;DHT22;8168;49.036;7.690;2023-05-15T16:06:49;17.90;99.90
16128;DHT22;8168;49.036;7.690;2023-05-15T16:09:20;17.90;99.90
16128;DHT22;8168;49.036;7.690;2023-05-15T16:11:50;17.80;99.90
16128;DHT22;8168;49.036;7.690;2023-05-15T16:14:22;17.80;99.90
16128;DHT22;8168;49.036;7.690;2023-05-15T16:16:53;17.80;99.90
16128;DHT22;8168;49.036;7.690;2023-05-15T16:19:24;17.80;99.90
16128;DHT22;8168;49.036;7.690;2023-05-15T16:21:54;17.80;99.90
16128;DHT22;8168;49.036;7.690;2023-05-15T16:24:25;17.80;99.90
16128;DHT22;8168;49.036;7.690;2023-05-15T16:26:56;17.80;99.90
16128;DHT22;8168;49.036;7.690;2023-05-15T16:29:26;17.80;99.90